createdAt,value
2019-04-20T00:00:44.100Z,103215.38
2019-04-20T00:03:08.133Z,103218.90
2019-04-20T00:05:35.435Z,103217.53
2019-04-20T00:08:09.892Z,103216.22
2019-04-20T00:10:43.336Z,103212.80
2019-04-20T00:13:13.807Z,103214.45
2019-04-20T00:15:30.707Z,103212.92
2019-04-20T00:18:01.838Z,103214.33
2019-04-20T00:20:32.031Z,103216.58
2019-04-20T00:23:19.735Z,103215.65
2019-04-20T00:26:13.166Z,103218.70
2019-04-20T00:28:51.091Z,103219.53
2019-04-20T00:31:20.855Z,103214.91
2019-04-20T00:33:42.267Z,103212.87
2019-04-20T00:36:01.129Z,103206.42
2019-04-20T00:38:36.182Z,103206.37
2019-04-20T00:41:02.749Z,103209.97
2019-04-20T00:43:32.319Z,103205.48
2019-04-20T00:46:04.918Z,103207.42
2019-04-20T00:48:40.092Z,103213.53
2019-04-20T00:51:16.840Z,103206.39
2019-04-20T00:53:31.415Z,103201.89
2019-04-20T00:55:53.152Z,103207.42
2019-04-20T00:58:29.957Z,103207.64
2019-04-20T01:01:17.007Z,103209.16
2019-04-20T01:03:33.990Z,103205.67
2019-04-20T01:06:19.320Z,103206.63
2019-04-20T01:08:34.019Z,103212.22
2019-04-20T01:11:02.715Z,103208.79
2019-04-20T01:13:31.757Z,103212.81
2019-04-20T01:16:06.369Z,103212.27
2019-04-20T01:18:28.511Z,103212.09
2019-04-20T01:20:58.091Z,103210.52
2019-04-20T01:23:34.597Z,103207.66
2019-04-20T01:26:00.243Z,103210.46
2019-04-20T01:28:37.486Z,103204.53
2019-04-20T01:31:06.464Z,103203.80
2019-04-20T01:33:31.818Z,103205.44
2019-04-20T01:36:02.812Z,103209.70
2019-04-20T01:38:34.691Z,103203.45
2019-04-20T01:40:50.589Z,103207.29
2019-04-20T01:43:18.427Z,103210.23
2019-04-20T01:45:47.322Z,103211.12
2019-04-20T01:48:22.043Z,103207.22
2019-04-20T01:50:55.949Z,103203.67
2019-04-20T01:53:29.215Z,103211.13
2019-04-20T01:56:01.453Z,103209.98
2019-04-20T01:58:39.806Z,103210.80
2019-04-20T02:01:21.001Z,103209.67
2019-04-20T02:03:56.873Z,103209.56
2019-04-20T02:06:26.775Z,103211.37
2019-04-20T02:09:00.308Z,103209.03
2019-04-20T02:11:30.129Z,103206.43
2019-04-20T02:13:56.611Z,103206.02
2019-04-20T02:16:28.930Z,103207.03
2019-04-20T02:19:09.264Z,103206.99
2019-04-20T02:21:37.917Z,103207.28
2019-04-20T02:23:55.561Z,103209.22
2019-04-20T02:26:19.954Z,103206.39
2019-04-20T02:29:13.450Z,103209.75
2019-04-20T02:32:05.048Z,103208.95
2019-04-20T02:34:32.750Z,103207.82
2019-04-20T02:39:44.454Z,103211.37
2019-04-20T02:42:19.768Z,103207.53
2019-04-20T02:47:07.912Z,103208.66
2019-04-20T02:49:35.396Z,103208.17
2019-04-20T02:54:26.500Z,103206.27
2019-04-20T02:59:56.294Z,103197.72
2019-04-20T03:01:52.159Z,103199.98
2019-04-20T03:04:04.979Z,103203.94
2019-04-20T03:06:39.999Z,103203.41
2019-04-20T03:09:20.147Z,103204.73
2019-04-20T03:11:59.349Z,103196.13
2019-04-20T03:14:16.362Z,103199.97
2019-04-20T03:16:43.722Z,103199.86
2019-04-20T03:19:14.116Z,103197.95
2019-04-20T03:21:51.413Z,103189.05
2019-04-20T03:24:20.449Z,103192.74
2019-04-20T03:26:40.307Z,103192.74
2019-04-20T03:29:40.811Z,103190.65
2019-04-20T03:37:28.014Z,103190.64
2019-04-20T03:39:40.546Z,103194.33
2019-04-20T03:41:58.415Z,103192.19
2019-04-20T03:44:27.798Z,103193.16
2019-04-20T03:46:59.682Z,103201.59
2019-04-20T03:49:48.307Z,103198.34
2019-04-20T03:52:28.799Z,103203.30
2019-04-20T03:55:19.995Z,103196.41
2019-04-20T03:58:17.155Z,103199.84
2019-04-20T04:00:45.902Z,103191.83
2019-04-20T04:03:34.942Z,103200.05
2019-04-20T04:05:55.968Z,103199.95
2019-04-20T04:08:21.207Z,103203.30
2019-04-20T04:11:01.455Z,103198.61
2019-04-20T04:13:12.883Z,103201.16
2019-04-20T04:15:48.763Z,103206.51
2019-04-20T04:18:19.689Z,103203.26
2019-04-20T04:20:50.054Z,103200.42
2019-04-20T04:23:29.615Z,103204.78
2019-04-20T04:26:00.873Z,103208.82
2019-04-20T04:28:28.520Z,103209.16
2019-04-20T04:31:04.152Z,103208.30
2019-04-20T04:35:56.590Z,103211.78
2019-04-20T04:38:35.939Z,103216.95
2019-04-20T04:41:08.473Z,103217.05
2019-04-20T04:43:25.778Z,103223.42
2019-04-20T04:45:38.630Z,103227.79
2019-04-20T04:48:13.082Z,103222.65
2019-04-20T04:50:44.588Z,103226.58
2019-04-20T04:53:11.964Z,103229.02
2019-04-20T04:55:43.934Z,103226.37
2019-04-20T04:58:04.374Z,103223.05
2019-04-20T05:00:34.190Z,103231.29
2019-04-20T05:03:23.303Z,103224.17
2019-04-20T05:06:13.341Z,103224.94
2019-04-20T05:08:30.744Z,103225.96
2019-04-20T05:10:52.052Z,103227.37
2019-04-20T05:13:19.938Z,103226.84
2019-04-20T05:16:00.397Z,103232.55
2019-04-20T05:18:43.502Z,103234.17
2019-04-20T05:21:11.907Z,103230.48
2019-04-20T05:23:44.613Z,103241.53
2019-04-20T05:26:30.066Z,103246.09
2019-04-20T05:28:52.753Z,103240.93
2019-04-20T05:31:13.278Z,103243.12
2019-04-20T05:34:04.170Z,103245.10
2019-04-20T05:36:28.204Z,103254.16
2019-04-20T05:39:05.142Z,103247.67
2019-04-20T05:41:26.513Z,103251.62
2019-04-20T05:43:59.724Z,103255.06
2019-04-20T05:46:32.351Z,103249.47
2019-04-20T05:49:03.149Z,103244.80
2019-04-20T05:51:36.447Z,103247.77
2019-04-20T05:54:05.636Z,103252.04
2019-04-20T05:56:35.869Z,103249.56
2019-04-20T05:58:59.596Z,103250.38
2019-04-20T06:01:34.402Z,103256.22
2019-04-20T06:03:59.397Z,103260.80
2019-04-20T06:06:33.181Z,103255.41
2019-04-20T06:09:08.778Z,103256.94
2019-04-20T06:11:26.680Z,103256.52
2019-04-20T06:14:07.112Z,103262.03
2019-04-20T06:17:17.039Z,103264.88
2019-04-20T06:19:39.468Z,103261.93
2019-04-20T06:22:35.211Z,103263.25
2019-04-20T06:25:31.618Z,103266.02
2019-04-20T06:27:46.738Z,103278.68
2019-04-20T06:30:05.949Z,103270.78
2019-04-20T06:33:24.257Z,103272.27
2019-04-20T06:36:06.028Z,103272.66
2019-04-20T06:38:40.300Z,103275.75
2019-04-20T06:40:59.408Z,103274.81
2019-04-20T06:43:13.207Z,103268.69
2019-04-20T06:45:51.322Z,103266.55
2019-04-20T06:48:20.452Z,103266.52
2019-04-20T06:50:38.486Z,103263.97
2019-04-20T06:53:31.899Z,103267.86
2019-04-20T06:55:59.096Z,103270.52
2019-04-20T06:58:42.018Z,103273.98
2019-04-20T07:00:56.364Z,103271.34
2019-04-20T07:03:37.321Z,103271.15
2019-04-20T07:06:06.344Z,103272.10
2019-04-20T07:08:45.104Z,103277.92
2019-04-20T07:10:58.033Z,103278.31
2019-04-20T07:13:15.367Z,103283.71
2019-04-20T07:15:54.458Z,103276.95
2019-04-20T07:18:30.001Z,103277.66
2019-04-20T07:20:59.287Z,103269.99
2019-04-20T07:23:31.257Z,103269.70
2019-04-20T07:26:02.142Z,103270.36
2019-04-20T07:28:32.731Z,103271.33
2019-04-20T07:30:56.918Z,103272.69
2019-04-20T07:33:32.516Z,103276.07
2019-04-20T07:35:56.300Z,103277.82
2019-04-20T07:40:56.008Z,103278.91
2019-04-20T07:43:26.876Z,103274.50
2019-04-20T07:45:51.626Z,103278.85
2019-04-20T07:48:21.192Z,103284.39
2019-04-20T07:50:45.004Z,103282.53
2019-04-20T07:53:16.704Z,103279.41
2019-04-20T07:55:54.208Z,103285.48
2019-04-20T07:58:10.803Z,103282.94
2019-04-20T08:03:33.658Z,103295.22
2019-04-20T08:06:11.605Z,103291.78
2019-04-20T08:08:50.456Z,103296.45
2019-04-20T08:11:23.443Z,103288.81
2019-04-20T08:13:51.298Z,103299.44
2019-04-20T08:16:23.139Z,103289.80
2019-04-20T08:18:55.473Z,103294.25
2019-04-20T08:21:25.667Z,103294.59
2019-04-20T08:23:48.942Z,103294.55
2019-04-20T08:26:09.076Z,103293.16
2019-04-20T08:28:44.692Z,103283.00
2019-04-20T08:31:40.670Z,103288.16
2019-04-20T08:34:26.495Z,103278.51
2019-04-20T08:36:51.487Z,103273.27
2019-04-20T08:39:35.784Z,103270.32
2019-04-20T08:41:53.586Z,103274.20
2019-04-20T08:44:42.661Z,103271.23
2019-04-20T08:47:01.827Z,103271.16
2019-04-20T08:49:26.352Z,103265.55
2019-04-20T08:51:55.737Z,103271.11
2019-04-20T08:54:12.493Z,103270.77
2019-04-20T08:56:33.748Z,103269.87
2019-04-20T08:58:53.305Z,103264.96
2019-04-20T09:01:25.755Z,103266.70
2019-04-20T09:03:58.963Z,103267.92
2019-04-20T09:06:33.293Z,103265.23
2019-04-20T09:09:03.683Z,103261.70
2019-04-20T09:11:41.879Z,103250.36
2019-04-20T09:13:51.986Z,103252.23
2019-04-20T09:16:19.939Z,103258.64
2019-04-20T09:18:53.198Z,103251.86
2019-04-20T09:21:24.306Z,103254.69
2019-04-20T09:24:11.804Z,103249.33
2019-04-20T09:26:32.773Z,103251.52
2019-04-20T09:28:59.197Z,103255.19
2019-04-20T09:31:52.127Z,103252.66
2019-04-20T09:34:42.666Z,103247.88
2019-04-20T09:37:25.973Z,103257.16
2019-04-20T09:40:06.069Z,103249.69
2019-04-20T09:42:16.237Z,103248.30
2019-04-20T09:44:47.784Z,103257.02
2019-04-20T09:47:14.010Z,103245.22
2019-04-20T09:49:51.916Z,103241.95
2019-04-20T09:52:20.718Z,103246.39
2019-04-20T09:54:58.025Z,103244.92
2019-04-20T09:57:32.249Z,103241.64
2019-04-20T09:59:59.877Z,103233.52
2019-04-20T10:02:17.867Z,103239.70
2019-04-20T10:04:39.695Z,103240.55
2019-04-20T10:07:12.922Z,103234.14
2019-04-20T10:09:39.853Z,103241.05
2019-04-20T10:12:07.906Z,103234.03
2019-04-20T10:14:36.127Z,103229.64
2019-04-20T10:17:03.582Z,103236.52
2019-04-20T10:19:34.021Z,103231.33
2019-04-20T10:22:00.376Z,103226.89
2019-04-20T10:24:28.513Z,103224.19
2019-04-20T10:26:56.592Z,103227.82
2019-04-20T10:29:23.922Z,103226.95
2019-04-20T10:31:55.600Z,103218.18
2019-04-20T10:34:23.693Z,103222.05
2019-04-20T10:37:09.427Z,103222.10
2019-04-20T10:39:40.554Z,103221.59
2019-04-20T10:42:08.186Z,103216.91
2019-04-20T10:44:36.702Z,103219.27
2019-04-20T10:47:05.010Z,103217.78
2019-04-20T10:49:33.278Z,103222.94
2019-04-20T10:52:01.708Z,103214.08
2019-04-20T10:54:30.278Z,103219.98
2019-04-20T10:56:57.761Z,103211.25
2019-04-20T10:59:27.750Z,103212.53
2019-04-20T11:01:55.921Z,103205.30
2019-04-20T11:04:23.283Z,103205.32
2019-04-20T11:06:50.643Z,103206.77
2019-04-20T11:09:18.472Z,103212.77
2019-04-20T11:11:46.180Z,103213.27
2019-04-20T11:14:22.818Z,103206.72
2019-04-20T11:16:42.758Z,103212.06
2019-04-20T11:19:11.521Z,103211.61
2019-04-20T11:21:38.963Z,103213.22
2019-04-20T11:24:06.331Z,103204.34
2019-04-20T11:26:36.510Z,103207.55
2019-04-20T11:29:04.207Z,103214.12
2019-04-20T11:31:38.040Z,103199.74
2019-04-20T11:34:01.329Z,103203.58
2019-04-20T11:36:28.783Z,103200.20
2019-04-20T11:38:56.720Z,103205.30
2019-04-20T11:41:27.675Z,103205.05
2019-04-20T11:43:53.789Z,103200.22
2019-04-20T11:46:22.730Z,103201.17
2019-04-20T11:48:50.076Z,103203.00
2019-04-20T11:51:18.982Z,103194.28
2019-04-20T11:53:46.536Z,103195.63
2019-04-20T11:56:20.219Z,103184.52
2019-04-20T11:58:43.038Z,103183.99
2019-04-20T12:01:39.252Z,103183.23
2019-04-20T12:04:02.948Z,103185.98
2019-04-20T12:06:28.790Z,103178.28
2019-04-20T12:08:57.036Z,103172.41
2019-04-20T12:11:36.111Z,103161.98
2019-04-20T12:13:54.574Z,103179.11
2019-04-20T12:16:21.850Z,103170.62
2019-04-20T12:18:50.213Z,103159.78
2019-04-20T12:21:18.938Z,103161.75
2019-04-20T12:23:46.524Z,103169.88
2019-04-20T12:26:14.839Z,103167.34
2019-04-20T12:28:43.457Z,103163.53
2019-04-20T12:31:15.369Z,103155.59
2019-04-20T12:33:40.275Z,103159.05
2019-04-20T12:36:10.245Z,103159.16
2019-04-20T12:38:39.042Z,103146.94
2019-04-20T12:41:08.373Z,103145.95
2019-04-20T12:43:35.997Z,103146.62
2019-04-20T12:46:03.648Z,103150.39
2019-04-20T12:48:31.472Z,103163.68
2019-04-20T12:50:59.477Z,103138.56
2019-04-20T12:53:26.897Z,103141.08
2019-04-20T12:55:54.748Z,103143.09
2019-04-20T12:58:22.836Z,103137.89
2019-04-20T13:00:52.278Z,103138.05
2019-04-20T13:03:19.792Z,103136.31
2019-04-20T13:05:47.870Z,103131.25
2019-04-20T13:08:23.255Z,103138.00
2019-04-20T13:10:50.704Z,103133.81
2019-04-20T13:13:28.139Z,103149.42
2019-04-20T13:16:08.216Z,103144.02
2019-04-20T13:18:43.362Z,103140.44
2019-04-20T13:21:11.165Z,103134.85
2019-04-20T13:23:38.521Z,103132.11
2019-04-20T13:26:08.757Z,103144.73
2019-04-20T13:28:35.041Z,103142.67
2019-04-20T13:31:03.856Z,103146.41
2019-04-20T13:33:31.531Z,103140.03
2019-04-20T13:35:59.012Z,103141.77
2019-04-20T13:38:26.423Z,103134.30
2019-04-20T13:40:55.732Z,103144.20
2019-04-20T13:43:23.804Z,103141.84
2019-04-20T13:45:51.162Z,103139.41
2019-04-20T13:48:19.254Z,103138.52
2019-04-20T13:50:46.637Z,103135.78
2019-04-20T13:53:14.956Z,103138.95
2019-04-20T13:55:43.584Z,103133.66
2019-04-20T13:58:31.580Z,103126.78
2019-04-20T14:01:34.724Z,103127.76
2019-04-20T14:04:16.901Z,103135.74
2019-04-20T14:06:45.653Z,103124.73
2019-04-20T14:09:13.045Z,103117.94
2019-04-20T14:11:41.404Z,103116.64
2019-04-20T14:14:09.090Z,103121.09
2019-04-20T14:16:45.217Z,103111.56
2019-04-20T14:19:14.288Z,103112.11
2019-04-20T14:21:41.813Z,103114.33
2019-04-20T14:24:09.264Z,103109.29
2019-04-20T14:26:40.314Z,103101.25
2019-04-20T14:29:07.163Z,103107.34
2019-04-20T14:31:35.193Z,103097.25
2019-04-20T14:34:02.726Z,103100.95
2019-04-20T14:36:30.796Z,103093.33
2019-04-20T14:38:58.357Z,103089.38
2019-04-20T14:41:28.440Z,103084.72
2019-04-20T14:43:57.198Z,103083.28
2019-04-20T14:46:27.917Z,103084.28
2019-04-20T14:48:56.581Z,103088.05
2019-04-20T14:51:26.046Z,103079.70
2019-04-20T14:53:53.822Z,103079.16
2019-04-20T14:56:21.164Z,103080.92
2019-04-20T14:58:55.664Z,103075.40
2019-04-20T15:01:28.383Z,103079.56
2019-04-20T15:04:02.838Z,103065.58
2019-04-20T15:06:25.615Z,103069.46
2019-04-20T15:08:52.844Z,103063.00
2019-04-20T15:11:20.921Z,103063.60
2019-04-20T15:13:48.915Z,103065.97
2019-04-20T15:16:17.017Z,103064.50
2019-04-20T15:19:07.561Z,103060.80
2019-04-20T15:21:35.601Z,103060.20
2019-04-20T15:24:05.942Z,103061.67
2019-04-20T15:26:34.260Z,103064.73
2019-04-20T15:29:02.153Z,103063.64
2019-04-20T15:31:30.114Z,103058.59
2019-04-20T15:33:57.592Z,103062.52
2019-04-20T15:36:26.278Z,103058.16
2019-04-20T15:38:53.614Z,103052.95
2019-04-20T15:41:20.956Z,103055.07
2019-04-20T15:43:49.125Z,103058.75
2019-04-20T15:46:17.237Z,103048.06
2019-04-20T15:48:46.060Z,103059.47
2019-04-20T15:51:14.153Z,103046.87
2019-04-20T15:53:41.794Z,103040.33
2019-04-20T15:56:11.591Z,103047.08
2019-04-20T15:58:38.733Z,103047.02
2019-04-20T16:01:08.304Z,103051.38
2019-04-20T16:03:43.354Z,103050.07
2019-04-20T16:06:11.539Z,103038.72
2019-04-20T16:08:39.625Z,103045.81
2019-04-20T16:11:07.158Z,103043.86
2019-04-20T16:13:39.592Z,103045.00
2019-04-20T16:16:05.827Z,103038.27
2019-04-20T16:18:34.828Z,103045.11
2019-04-20T16:21:07.973Z,103041.11
2019-04-20T16:23:40.773Z,103046.21
2019-04-20T16:26:21.809Z,103033.21
2019-04-20T16:28:50.120Z,103030.59
2019-04-20T16:31:18.363Z,103042.95
2019-04-20T16:33:46.469Z,103036.42
2019-04-20T16:36:14.551Z,103034.70
2019-04-20T16:38:41.910Z,103036.27
2019-04-20T16:41:10.441Z,103035.27
2019-04-20T16:43:41.474Z,103034.17
2019-04-20T16:46:06.980Z,103027.58
2019-04-20T16:48:34.251Z,103029.95
2019-04-20T16:51:02.925Z,103029.72
2019-04-20T16:53:30.947Z,103023.09
2019-04-20T16:55:58.959Z,103024.33
2019-04-20T16:58:26.434Z,103023.42
2019-04-20T17:00:53.898Z,103024.34
2019-04-20T17:03:24.221Z,103018.63
2019-04-20T17:05:51.420Z,103018.70
2019-04-20T17:08:18.938Z,103015.66
2019-04-20T17:10:46.628Z,103014.60
2019-04-20T17:13:13.985Z,103005.70
2019-04-20T17:15:41.517Z,103013.05
2019-04-20T17:18:09.640Z,103014.08
2019-04-20T17:20:37.036Z,103009.45
2019-04-20T17:23:07.021Z,103005.40
2019-04-20T17:25:34.345Z,103012.12
2019-04-20T17:28:20.723Z,103017.96
2019-04-20T17:31:03.068Z,103010.56
2019-04-20T17:34:02.603Z,103012.17
2019-04-20T17:36:24.944Z,103012.77
2019-04-20T17:38:54.159Z,103008.34
2019-04-20T17:41:43.255Z,103005.10
2019-04-20T17:44:07.240Z,103004.16
2019-04-20T17:46:27.331Z,103007.27
2019-04-20T17:49:03.205Z,103012.63
2019-04-20T17:51:34.531Z,103008.27
2019-04-20T17:54:06.839Z,103005.25
2019-04-20T17:56:38.431Z,103011.03
2019-04-20T17:59:06.177Z,103010.20
2019-04-20T18:02:11.940Z,103006.77
2019-04-20T18:05:14.225Z,103008.30
2019-04-20T18:07:41.256Z,103014.20
2019-04-20T18:10:09.167Z,103004.88
2019-04-20T18:12:26.836Z,103008.63
2019-04-20T18:15:00.813Z,103015.14
2019-04-20T18:18:08.405Z,103012.54
2019-04-20T18:20:52.597Z,103015.08
2019-04-20T18:23:25.502Z,103015.64
2019-04-20T18:26:21.253Z,103018.44
2019-04-20T18:28:32.314Z,103013.39
2019-04-20T18:30:59.263Z,103008.75
2019-04-20T18:33:29.908Z,103014.70
2019-04-20T18:35:54.053Z,103017.28
2019-04-20T18:38:21.994Z,103023.10
2019-04-20T18:41:00.415Z,103019.69
2019-04-20T18:43:23.941Z,103019.25
2019-04-20T18:46:10.705Z,103015.70
2019-04-20T18:48:43.926Z,103017.23
2019-04-20T18:50:50.358Z,103013.31
2019-04-20T18:53:28.373Z,103021.21
2019-04-20T18:55:55.474Z,103012.20
2019-04-20T18:58:19.164Z,103015.70
2019-04-20T19:00:51.731Z,103013.81
2019-04-20T19:03:27.012Z,103009.47
2019-04-20T19:05:47.487Z,103010.61
2019-04-20T19:08:16.287Z,103009.45
2019-04-20T19:10:52.268Z,103008.52
2019-04-20T19:13:44.643Z,103011.98
2019-04-20T19:16:32.658Z,103006.85
2019-04-20T19:19:20.164Z,103009.70
2019-04-20T19:21:37.376Z,103005.11
2019-04-20T19:24:10.978Z,103005.55
2019-04-20T19:26:34.342Z,103002.71
2019-04-20T19:29:13.393Z,103006.27
2019-04-20T19:31:45.389Z,103005.73
2019-04-20T19:34:19.042Z,103011.27
2019-04-20T19:36:36.936Z,103005.31
2019-04-20T19:39:17.253Z,103010.62
2019-04-20T19:41:39.169Z,103013.49
2019-04-20T19:44:10.309Z,103008.86
2019-04-20T19:49:07.894Z,103010.50
2019-04-20T19:51:49.265Z,103004.16
2019-04-20T19:54:17.918Z,103010.83
2019-04-20T19:56:41.425Z,103009.61
2019-04-20T19:59:09.231Z,103011.91
2019-04-20T20:01:23.903Z,103009.95
2019-04-20T20:03:57.510Z,103006.31
2019-04-20T20:06:29.098Z,103003.73
2019-04-20T20:08:55.758Z,102999.78
2019-04-20T20:11:29.488Z,102998.56
2019-04-20T20:13:53.091Z,102998.21
2019-04-20T20:16:27.192Z,103002.53
2019-04-20T20:18:58.878Z,103001.38
2019-04-20T20:21:27.269Z,102998.73
2019-04-20T20:23:47.944Z,103000.38
2019-04-20T20:26:23.106Z,103010.20
2019-04-20T20:28:51.814Z,103013.44
2019-04-20T20:31:23.306Z,103021.66
2019-04-20T20:33:58.107Z,103014.03
2019-04-20T20:36:19.359Z,103012.80
2019-04-20T20:38:48.084Z,103017.02
2019-04-20T20:41:18.375Z,103012.46
2019-04-20T20:43:53.942Z,103019.03
2019-04-20T20:46:19.453Z,103023.66
2019-04-20T20:49:03.423Z,103013.47
2019-04-20T20:51:34.623Z,103016.53
2019-04-20T20:53:50.949Z,103015.59
2019-04-20T20:56:15.032Z,103018.89
2019-04-20T20:58:49.727Z,103015.11
2019-04-20T21:01:15.714Z,103020.63
2019-04-20T21:03:40.329Z,103018.45
2019-04-20T21:06:03.528Z,103011.64
2019-04-20T21:08:31.438Z,103009.97
2019-04-20T21:11:00.151Z,103007.85
2019-04-20T21:13:33.283Z,103009.58
2019-04-20T21:16:02.547Z,103016.08
2019-04-20T21:18:43.493Z,103010.13
2019-04-20T21:21:11.440Z,103007.94
2019-04-20T21:23:37.026Z,103011.23
2019-04-20T21:26:07.055Z,103009.43
2019-04-20T21:28:36.317Z,103016.16
2019-04-20T21:31:11.617Z,103011.50
2019-04-20T21:33:37.782Z,103009.39
2019-04-20T21:36:03.349Z,103007.80
2019-04-20T21:38:35.897Z,103004.08
2019-04-20T21:41:07.476Z,102999.70
2019-04-20T21:43:33.844Z,103005.95
2019-04-20T21:46:03.220Z,103007.16
2019-04-20T21:48:48.943Z,103008.43
2019-04-20T21:51:13.366Z,103000.52
2019-04-20T21:53:30.500Z,102993.87
2019-04-20T21:55:55.336Z,103001.80
2019-04-20T21:58:27.993Z,102998.15
2019-04-20T22:01:10.825Z,102992.41
2019-04-20T22:03:27.566Z,102985.87
2019-04-20T22:06:06.809Z,102991.03
2019-04-20T22:08:34.672Z,102992.39
2019-04-20T22:11:03.850Z,102988.14
2019-04-20T22:13:38.041Z,102987.91
2019-04-20T22:16:07.310Z,102990.36
2019-04-20T22:18:47.377Z,102989.41
2019-04-20T22:21:14.172Z,102991.27
2019-04-20T22:23:50.341Z,102981.55
2019-04-20T22:26:12.035Z,102978.84
2019-04-20T22:28:29.890Z,102976.70
2019-04-20T22:30:57.982Z,102981.78
2019-04-20T22:33:33.617Z,102975.08
2019-04-20T22:36:02.192Z,102965.74
2019-04-20T22:38:58.124Z,102963.81
2019-04-20T22:41:25.768Z,102965.74
2019-04-20T22:43:54.646Z,102966.16
2019-04-20T22:46:25.812Z,102958.97
2019-04-20T22:49:06.946Z,102965.08
2019-04-20T22:51:37.102Z,102955.66
2019-04-20T22:54:10.974Z,102952.13
2019-04-20T22:56:35.685Z,102946.44
2019-04-20T22:58:57.535Z,102941.72
2019-04-20T23:01:27.555Z,102939.20
2019-04-20T23:03:46.834Z,102937.29
2019-04-20T23:06:14.590Z,102939.66
2019-04-20T23:08:42.510Z,102930.45
2019-04-20T23:11:20.334Z,102932.25
2019-04-20T23:13:41.865Z,102925.36
2019-04-20T23:16:09.269Z,102928.41
2019-04-20T23:18:37.981Z,102915.05
2019-04-20T23:21:10.423Z,102913.55
2019-04-20T23:23:35.554Z,102917.87
2019-04-20T23:26:03.333Z,102911.93
2019-04-20T23:28:31.320Z,102916.67
2019-04-20T23:31:03.860Z,102911.82
2019-04-20T23:33:27.862Z,102906.92
2019-04-20T23:35:58.249Z,102904.52
2019-04-20T23:38:24.838Z,102906.17
2019-04-20T23:40:52.292Z,102896.16
2019-04-20T23:43:28.211Z,102891.72
2019-04-20T23:46:25.786Z,102888.23
2019-04-20T23:49:18.861Z,102875.09
2019-04-20T23:52:00.690Z,102882.17
2019-04-20T23:54:13.831Z,102875.40
2019-04-20T23:56:37.509Z,102864.75
2019-04-20T23:59:06.377Z,102867.20
